createdAt,value
2018-11-29T00:02:25.900Z,21.00
2018-11-29T00:04:54.753Z,20.57
2018-11-29T00:07:23.599Z,20.57
2018-11-29T00:09:52.429Z,20.33
2018-11-29T00:12:21.255Z,20.07
2018-11-29T00:14:50.106Z,21.03
2018-11-29T00:17:18.949Z,20.90
2018-11-29T00:19:47.786Z,20.97
2018-11-29T00:22:16.616Z,20.13
2018-11-29T00:24:45.476Z,19.60
2018-11-29T00:27:15.045Z,20.10
2018-11-29T00:29:43.889Z,20.93
2018-11-29T00:32:12.731Z,20.73
2018-11-29T00:34:41.566Z,20.07
2018-11-29T00:37:10.412Z,20.73
2018-11-29T00:39:39.259Z,21.23
2018-11-29T00:42:08.107Z,20.17
2018-11-29T00:44:37.685Z,20.63
2018-11-29T00:47:06.555Z,20.00
2018-11-29T00:49:35.396Z,19.87
2018-11-29T00:52:04.243Z,20.67
2018-11-29T00:54:33.079Z,21.55
2018-11-29T00:57:01.936Z,21.13
2018-11-29T00:59:30.762Z,19.93
2018-11-29T01:01:59.597Z,18.80
2018-11-29T01:04:28.435Z,19.20
2018-11-29T01:06:58.011Z,19.70
2018-11-29T01:09:26.873Z,21.75
2018-11-29T01:11:55.699Z,20.27
2018-11-29T01:14:24.539Z,20.40
2018-11-29T01:16:53.388Z,20.00
2018-11-29T01:19:22.281Z,18.93
2018-11-29T01:21:51.098Z,19.00
2018-11-29T01:24:19.939Z,19.93
2018-11-29T01:26:48.782Z,20.57
2018-11-29T01:29:17.620Z,20.03
2018-11-29T01:31:46.461Z,19.33
2018-11-29T01:34:15.311Z,20.63
2018-11-29T01:36:44.163Z,21.53
2018-11-29T01:39:13.021Z,22.40
2018-11-29T01:41:41.864Z,20.83
2018-11-29T01:44:10.718Z,19.07
2018-11-29T01:46:39.549Z,20.87
2018-11-29T01:49:08.419Z,20.83
2018-11-29T01:51:37.256Z,22.85
2018-11-29T01:54:06.690Z,21.63
2018-11-29T01:56:35.535Z,20.63
2018-11-29T01:59:05.110Z,21.20
2018-11-29T02:01:33.960Z,21.17
2018-11-29T02:04:02.827Z,22.60
2018-11-29T02:06:32.393Z,20.60
2018-11-29T02:09:01.232Z,20.40
2018-11-29T02:11:30.810Z,21.37
2018-11-29T02:14:00.400Z,21.60
2018-11-29T02:16:29.227Z,21.40
2018-11-29T02:18:58.808Z,22.13
2018-11-29T02:21:27.656Z,22.00
2018-11-29T02:23:56.495Z,23.35
2018-11-29T02:26:25.345Z,22.27
2018-11-29T02:28:54.182Z,22.90
2018-11-29T02:31:23.031Z,20.97
2018-11-29T02:33:51.865Z,23.98
2018-11-29T02:36:21.460Z,23.95
2018-11-29T02:38:50.282Z,20.37
2018-11-29T02:41:19.118Z,20.97
2018-11-29T02:43:47.956Z,19.87
2018-11-29T02:46:16.801Z,21.83
2018-11-29T02:48:45.639Z,22.20
2018-11-29T02:51:14.487Z,21.17
2018-11-29T02:53:43.369Z,22.07
2018-11-29T02:56:12.179Z,23.92
2018-11-29T02:58:41.029Z,20.87
2018-11-29T03:01:09.877Z,23.35
2018-11-29T03:03:38.721Z,22.47
2018-11-29T03:06:07.555Z,22.30
2018-11-29T03:08:36.395Z,22.50
2018-11-29T03:11:05.239Z,22.03
2018-11-29T03:13:34.090Z,21.53
2018-11-29T03:16:02.939Z,21.27
2018-11-29T03:18:31.803Z,21.40
2018-11-29T03:21:00.645Z,20.77
2018-11-29T03:23:29.501Z,21.10
2018-11-29T03:25:58.329Z,22.53
2018-11-29T03:28:27.193Z,20.90
2018-11-29T03:30:56.031Z,20.50
2018-11-29T03:33:24.881Z,21.50
2018-11-29T03:35:53.714Z,21.10
2018-11-29T03:38:23.294Z,21.60
2018-11-29T03:40:52.143Z,21.50
2018-11-29T03:43:20.992Z,21.40
2018-11-29T03:45:50.571Z,22.17
2018-11-29T03:48:19.430Z,20.90
2018-11-29T03:50:48.267Z,21.37
2018-11-29T03:53:17.129Z,20.73
2018-11-29T03:55:45.966Z,22.67
2018-11-29T03:58:14.798Z,20.90
2018-11-29T04:00:43.634Z,21.07
2018-11-29T04:03:13.214Z,21.80
2018-11-29T04:05:42.091Z,21.33
2018-11-29T04:08:10.920Z,23.02
2018-11-29T04:10:39.761Z,20.93
2018-11-29T04:13:08.599Z,20.43
2018-11-29T04:15:37.460Z,19.27
2018-11-29T04:18:06.319Z,20.40
2018-11-29T04:20:35.173Z,20.83
2018-11-29T04:23:04.021Z,20.67
2018-11-29T04:25:32.871Z,20.57
2018-11-29T04:28:01.715Z,21.57
2018-11-29T04:30:30.575Z,22.73
2018-11-29T04:32:59.419Z,24.02
2018-11-29T04:35:28.258Z,21.60
2018-11-29T04:37:57.090Z,21.13
2018-11-29T04:40:26.672Z,20.43
2018-11-29T04:42:55.528Z,20.27
2018-11-29T04:45:24.366Z,21.47
2018-11-29T04:47:53.212Z,20.17
2018-11-29T04:50:22.056Z,21.10
2018-11-29T04:52:50.891Z,21.70
2018-11-29T04:55:19.725Z,21.80
2018-11-29T04:57:49.299Z,21.30
2018-11-29T05:00:18.131Z,20.90
2018-11-29T05:02:46.991Z,21.10
2018-11-29T05:05:15.813Z,21.23
2018-11-29T05:07:45.434Z,21.33
2018-11-29T05:10:14.270Z,20.47
2018-11-29T05:12:43.118Z,20.77
2018-11-29T05:15:11.956Z,21.33
2018-11-29T05:17:40.803Z,20.37
2018-11-29T05:20:09.669Z,22.98
2018-11-29T05:22:39.072Z,22.03
2018-11-29T05:25:07.916Z,20.93
2018-11-29T05:27:36.760Z,20.80
2018-11-29T05:30:05.605Z,21.37
2018-11-29T05:32:34.478Z,21.83
2018-11-29T05:35:03.322Z,21.77
2018-11-29T05:37:32.179Z,21.13
2018-11-29T05:40:01.800Z,22.07
2018-11-29T05:42:30.601Z,21.43
2018-11-29T05:44:59.446Z,21.37
2018-11-29T05:47:28.288Z,21.53
2018-11-29T05:49:57.122Z,21.37
2018-11-29T05:52:25.966Z,20.93
2018-11-29T05:54:54.818Z,21.37
2018-11-29T05:57:23.651Z,21.07
2018-11-29T05:59:52.485Z,20.63
2018-11-29T06:02:21.328Z,22.00
2018-11-29T06:04:50.170Z,21.87
2018-11-29T06:07:19.030Z,21.20
2018-11-29T06:09:47.864Z,23.80
2018-11-29T06:12:17.450Z,22.03
2018-11-29T06:14:47.032Z,20.83
2018-11-29T06:17:15.866Z,20.83
2018-11-29T06:19:45.442Z,21.57
2018-11-29T06:22:15.018Z,22.07
2018-11-29T06:24:43.873Z,21.37
2018-11-29T06:27:12.779Z,21.70
2018-11-29T06:29:41.617Z,20.67
2018-11-29T06:32:10.462Z,21.67
2018-11-29T06:34:39.314Z,21.80
2018-11-29T06:37:08.146Z,21.70
2018-11-29T06:39:36.980Z,21.17
2018-11-29T06:42:05.839Z,22.17
2018-11-29T06:44:34.696Z,22.00
2018-11-29T06:47:03.542Z,21.43
2018-11-29T06:49:34.175Z,21.57
2018-11-29T06:52:03.763Z,22.40
2018-11-29T06:54:32.597Z,20.67
2018-11-29T06:57:02.190Z,22.43
2018-11-29T06:59:31.044Z,22.93
2018-11-29T07:01:59.889Z,23.50
2018-11-29T07:04:28.748Z,22.90
2018-11-29T07:06:57.595Z,22.70
2018-11-29T07:09:26.436Z,23.40
2018-11-29T07:11:55.275Z,22.50
2018-11-29T07:14:24.152Z,22.70
2018-11-29T07:16:53.010Z,22.27
2018-11-29T07:19:22.598Z,22.23
2018-11-29T07:21:51.448Z,23.13
2018-11-29T07:24:20.290Z,24.63
2018-11-29T07:26:49.128Z,22.70
2018-11-29T07:29:17.974Z,21.13
2018-11-29T07:31:46.822Z,21.73
2018-11-29T07:34:15.658Z,21.50
2018-11-29T07:36:45.249Z,22.30
2018-11-29T07:39:14.090Z,23.30
2018-11-29T07:41:42.935Z,22.27
2018-11-29T07:44:12.527Z,21.67
2018-11-29T07:46:41.368Z,24.60
2018-11-29T07:49:10.193Z,22.73
2018-11-29T07:51:39.020Z,22.90
2018-11-29T07:54:07.977Z,21.83
2018-11-29T07:56:36.828Z,22.37
2018-11-29T07:59:05.664Z,21.83
2018-11-29T08:01:34.513Z,22.83
2018-11-29T08:04:03.366Z,21.27
2018-11-29T08:06:32.953Z,21.73
2018-11-29T08:09:01.799Z,22.43
2018-11-29T08:11:30.647Z,21.93
2018-11-29T08:14:00.233Z,22.57
2018-11-29T08:16:29.087Z,20.27
2018-11-29T08:18:57.937Z,21.70
2018-11-29T08:21:26.792Z,20.67
2018-11-29T08:23:55.637Z,21.10
2018-11-29T08:26:24.473Z,21.60
2018-11-29T08:28:53.326Z,22.00
2018-11-29T08:31:22.169Z,23.08
2018-11-29T08:33:51.759Z,20.37
2018-11-29T08:36:20.600Z,22.65
2018-11-29T08:38:49.451Z,19.70
2018-11-29T08:41:19.036Z,19.27
2018-11-29T08:43:47.900Z,19.07
2018-11-29T08:46:16.735Z,20.17
2018-11-29T08:48:45.590Z,18.67
2018-11-29T08:51:14.432Z,19.70
2018-11-29T08:53:43.279Z,19.67
2018-11-29T08:56:12.123Z,18.87
2018-11-29T08:58:41.011Z,19.17
2018-11-29T09:01:09.798Z,19.17
2018-11-29T09:03:38.645Z,19.17
2018-11-29T09:06:07.492Z,17.40
2018-11-29T09:08:36.342Z,21.75
2018-11-29T09:11:05.921Z,19.23
2018-11-29T09:13:35.361Z,19.47
2018-11-29T09:16:04.233Z,19.90
2018-11-29T09:18:33.815Z,19.20
2018-11-29T09:21:02.724Z,21.45
2018-11-29T09:23:31.500Z,20.73
2018-11-29T09:26:00.424Z,18.50
2018-11-29T09:28:29.234Z,18.53
2018-11-29T09:30:58.086Z,19.10
2018-11-29T09:33:26.983Z,18.57
2018-11-29T09:35:56.575Z,19.57
2018-11-29T09:38:25.413Z,19.17
2018-11-29T09:40:54.264Z,18.73
2018-11-29T09:43:23.120Z,18.67
2018-11-29T09:45:51.976Z,19.92
2018-11-29T09:48:20.822Z,18.87
2018-11-29T09:50:50.415Z,16.63
2018-11-29T09:53:19.267Z,17.37
2018-11-29T09:55:48.124Z,17.80
2018-11-29T09:58:16.973Z,17.00
2018-11-29T10:00:45.809Z,16.63
2018-11-29T10:03:15.400Z,16.50
2018-11-29T10:05:44.241Z,16.90
2018-11-29T10:08:13.082Z,18.10
2018-11-29T10:10:41.955Z,17.03
2018-11-29T10:13:11.391Z,18.10
2018-11-29T10:15:40.234Z,16.30
2018-11-29T10:18:09.069Z,15.90
2018-11-29T10:20:37.927Z,16.37
2018-11-29T10:23:06.762Z,16.33
2018-11-29T10:25:36.549Z,15.77
2018-11-29T10:28:05.196Z,16.73
2018-11-29T10:30:34.054Z,16.57
2018-11-29T10:33:02.890Z,15.13
2018-11-29T10:35:31.722Z,15.90
2018-11-29T10:38:00.579Z,15.70
2018-11-29T10:40:30.172Z,16.00
2018-11-29T10:42:59.129Z,15.73
2018-11-29T10:45:27.978Z,15.70
2018-11-29T10:47:57.574Z,16.27
2018-11-29T10:50:27.166Z,18.13
2018-11-29T10:52:56.003Z,18.08
2018-11-29T10:55:24.847Z,16.40
2018-11-29T10:57:53.724Z,15.57
2018-11-29T11:00:22.580Z,17.33
2018-11-29T11:02:51.426Z,15.77
2018-11-29T11:05:21.059Z,16.30
2018-11-29T11:07:50.627Z,16.17
2018-11-29T11:10:19.461Z,16.47
2018-11-29T11:12:48.322Z,12.80
2018-11-29T11:15:17.904Z,16.87
2018-11-29T11:17:46.756Z,16.63
2018-11-29T11:20:15.608Z,16.53
2018-11-29T11:22:45.204Z,16.67
2018-11-29T11:25:14.074Z,17.73
2018-11-29T11:27:42.907Z,17.30
2018-11-29T11:30:11.746Z,15.73
2018-11-29T11:32:40.585Z,16.23
2018-11-29T11:35:09.434Z,16.40
2018-11-29T11:37:38.324Z,16.80
2018-11-29T11:40:07.128Z,16.30
2018-11-29T11:42:36.008Z,16.90
2018-11-29T11:45:04.813Z,16.67
2018-11-29T11:47:33.667Z,14.73
2018-11-29T11:50:02.500Z,17.10
2018-11-29T11:52:33.551Z,16.07
2018-11-29T11:55:01.710Z,15.57
2018-11-29T11:57:31.335Z,14.83
2018-11-29T12:00:00.168Z,15.67
2018-11-29T12:02:28.997Z,16.97
2018-11-29T12:04:58.617Z,15.50
2018-11-29T12:07:27.477Z,15.33
2018-11-29T12:09:56.357Z,15.97
2018-11-29T12:12:25.206Z,16.77
2018-11-29T12:14:54.050Z,16.77
2018-11-29T12:17:23.023Z,17.45
2018-11-29T12:19:51.883Z,16.03
2018-11-29T12:22:20.697Z,14.50
2018-11-29T12:24:49.532Z,16.90
2018-11-29T12:27:18.378Z,15.43
2018-11-29T12:29:47.227Z,16.37
2018-11-29T12:32:16.081Z,16.03
2018-11-29T12:34:45.673Z,15.73
2018-11-29T12:37:14.516Z,16.85
2018-11-29T12:39:43.369Z,15.77
2018-11-29T12:42:12.968Z,16.33
2018-11-29T12:44:41.821Z,16.00
2018-11-29T12:47:10.661Z,17.20
2018-11-29T12:49:40.894Z,16.93
2018-11-29T12:52:09.847Z,16.37
2018-11-29T12:54:38.713Z,17.40
2018-11-29T12:57:07.554Z,17.07
2018-11-29T12:59:37.162Z,19.10
2018-11-29T13:02:06.005Z,18.30
2018-11-29T13:04:34.845Z,17.37
2018-11-29T13:07:03.691Z,16.67
2018-11-29T13:09:32.552Z,16.07
2018-11-29T13:12:01.409Z,17.90
2018-11-29T13:14:30.268Z,18.73
2018-11-29T13:16:59.126Z,17.63
2018-11-29T13:19:27.971Z,17.60
2018-11-29T13:21:56.813Z,16.07
2018-11-29T13:24:25.660Z,15.87
2018-11-29T13:26:54.518Z,16.97
2018-11-29T13:29:24.104Z,15.87
2018-11-29T13:31:52.966Z,15.93
2018-11-29T13:34:21.805Z,15.77
2018-11-29T13:36:50.672Z,15.47
2018-11-29T13:39:19.520Z,19.83
2018-11-29T13:41:48.354Z,17.83
2018-11-29T13:44:17.205Z,16.60
2018-11-29T13:46:46.055Z,15.93
2018-11-29T13:49:15.645Z,15.80
2018-11-29T13:51:44.479Z,15.30
2018-11-29T13:54:13.324Z,14.90
2018-11-29T13:56:42.192Z,15.90
2018-11-29T13:59:11.034Z,16.43
2018-11-29T14:01:39.880Z,13.60
2018-11-29T14:04:08.725Z,13.97
2018-11-29T14:06:37.567Z,14.60
2018-11-29T14:09:06.409Z,13.07
2018-11-29T14:11:35.250Z,15.13
2018-11-29T14:14:04.106Z,20.83
2018-11-29T14:16:32.982Z,18.57
2018-11-29T14:19:02.563Z,14.50
2018-11-29T14:21:32.143Z,13.27
2018-11-29T14:24:00.998Z,14.10
2018-11-29T14:26:29.845Z,13.70
2018-11-29T14:28:59.477Z,13.17
2018-11-29T14:31:28.298Z,14.30
2018-11-29T14:33:57.146Z,15.00
2018-11-29T14:36:25.997Z,25.87
2018-11-29T14:38:55.612Z,17.93
2018-11-29T14:41:25.217Z,14.07
2018-11-29T14:43:54.026Z,15.48
2018-11-29T14:46:22.874Z,15.50
2018-11-29T14:48:51.723Z,13.60
2018-11-29T14:51:20.590Z,14.53
2018-11-29T14:53:49.446Z,16.00
2018-11-29T14:56:18.276Z,15.83
2018-11-29T14:58:47.124Z,16.93
2018-11-29T15:01:15.986Z,17.13
2018-11-29T15:03:44.858Z,15.00
2018-11-29T15:06:13.710Z,27.62
2018-11-29T15:08:42.598Z,17.37
2018-11-29T15:11:12.219Z,14.53
2018-11-29T15:13:41.058Z,13.67
2018-11-29T15:16:09.900Z,14.40
2018-11-29T15:18:38.754Z,17.73
2018-11-29T15:21:07.589Z,14.37
2018-11-29T15:23:36.451Z,14.03
2018-11-29T15:26:06.019Z,13.90
2018-11-29T15:28:34.864Z,14.80
2018-11-29T15:31:03.718Z,13.30
2018-11-29T15:33:32.565Z,13.67
2018-11-29T15:36:01.410Z,13.63
2018-11-29T15:38:30.260Z,14.37
2018-11-29T15:40:59.099Z,13.50
2018-11-29T15:43:27.969Z,13.60
2018-11-29T15:45:56.821Z,14.60
2018-11-29T15:48:25.681Z,15.90
2018-11-29T15:50:54.512Z,15.13
2018-11-29T15:53:23.358Z,14.93
2018-11-29T15:55:52.210Z,14.50
2018-11-29T15:58:21.061Z,14.03
2018-11-29T16:00:49.902Z,14.47
2018-11-29T16:03:18.761Z,12.73
2018-11-29T16:05:47.615Z,13.83
2018-11-29T16:08:16.459Z,13.10
2018-11-29T16:10:46.069Z,12.60
2018-11-29T16:13:14.884Z,14.95
2018-11-29T16:15:43.737Z,14.23
2018-11-29T16:18:12.595Z,15.63
2018-11-29T16:20:41.450Z,14.97
2018-11-29T16:23:10.302Z,13.83
2018-11-29T16:25:39.172Z,13.60
2018-11-29T16:28:08.024Z,14.50
2018-11-29T16:30:36.883Z,15.17
2018-11-29T16:33:05.753Z,16.67
2018-11-29T16:35:34.597Z,15.63
2018-11-29T16:38:03.426Z,14.07
2018-11-29T16:40:32.269Z,13.00
2018-11-29T16:43:01.128Z,13.27
2018-11-29T16:45:29.991Z,13.43
2018-11-29T16:47:58.858Z,15.57
2018-11-29T16:50:27.714Z,14.20
2018-11-29T16:52:56.555Z,13.10
2018-11-29T16:55:25.419Z,12.13
2018-11-29T16:57:54.259Z,13.43
2018-11-29T17:00:23.699Z,14.87
2018-11-29T17:02:52.539Z,14.30
2018-11-29T17:05:21.386Z,15.70
2018-11-29T17:07:50.229Z,14.97
2018-11-29T17:10:19.086Z,14.73
2018-11-29T17:12:47.946Z,15.50
2018-11-29T17:15:16.780Z,16.12
2018-11-29T17:17:45.625Z,15.50
2018-11-29T17:20:14.473Z,14.55
2018-11-29T17:22:43.330Z,13.83
2018-11-29T17:25:12.160Z,13.73
2018-11-29T17:27:41.760Z,13.67
2018-11-29T17:30:10.618Z,14.70
2018-11-29T17:32:39.464Z,14.90
2018-11-29T17:35:08.312Z,10.97
2018-11-29T17:37:37.912Z,13.60
2018-11-29T17:40:06.799Z,15.60
2018-11-29T17:42:35.615Z,14.43
2018-11-29T17:45:05.245Z,13.47
2018-11-29T17:47:34.806Z,15.48
2018-11-29T17:50:03.663Z,13.80
2018-11-29T17:52:32.507Z,13.63
2018-11-29T17:55:01.360Z,14.60
2018-11-29T17:57:30.196Z,15.20
2018-11-29T17:59:59.815Z,14.80
2018-11-29T18:02:28.657Z,16.50
2018-11-29T18:04:57.573Z,15.00
2018-11-29T18:07:27.159Z,14.37
2018-11-29T18:09:56.062Z,16.17
2018-11-29T18:12:24.871Z,25.20
2018-11-29T18:14:53.723Z,32.90
2018-11-29T18:17:23.318Z,27.77
2018-11-29T18:19:52.195Z,20.90
2018-11-29T18:22:21.036Z,19.57
2018-11-29T18:24:49.891Z,14.93
2018-11-29T18:27:18.760Z,14.33
2018-11-29T18:29:47.598Z,14.93
2018-11-29T18:32:17.190Z,16.67
2018-11-29T18:34:46.058Z,15.87
2018-11-29T18:37:14.912Z,13.87
2018-11-29T18:39:43.750Z,14.27
2018-11-29T18:42:12.606Z,14.43
2018-11-29T18:44:41.444Z,13.70
2018-11-29T18:47:10.284Z,14.13
2018-11-29T18:49:39.139Z,13.60
2018-11-29T18:52:08.734Z,14.57
2018-11-29T18:54:38.324Z,15.73
2018-11-29T18:57:07.213Z,15.20
2018-11-29T18:59:36.045Z,16.30
2018-11-29T19:02:05.627Z,14.80
2018-11-29T19:04:35.218Z,13.83
2018-11-29T19:07:04.086Z,15.13
2018-11-29T19:09:32.926Z,17.80
2018-11-29T19:12:01.772Z,16.60
2018-11-29T19:14:30.611Z,25.13
2018-11-29T19:16:59.481Z,15.70
2018-11-29T19:19:29.126Z,16.77
2018-11-29T19:21:57.922Z,16.23
2018-11-29T19:24:26.812Z,15.17
2018-11-29T19:26:55.656Z,12.27
2018-11-29T19:29:25.247Z,16.37
2018-11-29T19:31:54.745Z,16.58
2018-11-29T19:34:23.640Z,16.95
2018-11-29T19:36:53.149Z,19.97
2018-11-29T19:39:22.734Z,34.97
2018-11-29T19:41:51.582Z,22.97
2018-11-29T19:44:20.426Z,17.17
2018-11-29T19:46:49.262Z,15.43
2018-11-29T19:49:18.113Z,15.97
2018-11-29T19:51:46.984Z,16.37
2018-11-29T19:54:16.851Z,17.70
2018-11-29T19:56:44.666Z,21.43
2018-11-29T19:59:13.540Z,26.27
2018-11-29T20:01:42.398Z,21.03
2018-11-29T20:04:11.235Z,20.27
2018-11-29T20:06:40.074Z,21.27
2018-11-29T20:09:08.971Z,20.70
2018-11-29T20:11:37.808Z,20.63
2018-11-29T20:14:06.695Z,19.58
2018-11-29T20:16:35.549Z,18.75
2018-11-29T20:19:04.372Z,15.60
2018-11-29T20:21:33.242Z,15.53
2018-11-29T20:24:02.111Z,15.60
2018-11-29T20:26:31.731Z,17.17
2018-11-29T20:28:59.782Z,19.40
2018-11-29T20:31:28.634Z,17.07
2018-11-29T20:33:57.482Z,19.10
2018-11-29T20:36:26.340Z,19.70
2018-11-29T20:38:55.234Z,21.30
2018-11-29T20:41:24.075Z,22.67
2018-11-29T20:43:52.938Z,22.73
2018-11-29T20:46:21.884Z,20.53
2018-11-29T20:48:50.718Z,20.03
2018-11-29T20:51:19.538Z,20.77
2018-11-29T20:53:48.413Z,21.83
2018-11-29T20:56:17.320Z,21.70
2018-11-29T20:58:46.174Z,17.90
2018-11-29T21:01:15.041Z,19.03
2018-11-29T21:03:43.943Z,27.30
2018-11-29T21:06:13.662Z,24.03
2018-11-29T21:08:42.415Z,22.80
2018-11-29T21:11:11.261Z,20.70
2018-11-29T21:13:40.102Z,21.70
2018-11-29T21:16:08.967Z,21.40
2018-11-29T21:18:38.556Z,19.70
2018-11-29T21:21:07.454Z,21.52
2018-11-29T21:23:36.274Z,20.40
2018-11-29T21:26:05.122Z,17.40
2018-11-29T21:28:33.996Z,17.00
2018-11-29T21:31:02.813Z,17.30
2018-11-29T21:33:31.701Z,17.97
2018-11-29T21:36:00.507Z,17.67
2018-11-29T21:38:29.361Z,16.77
2018-11-29T21:40:58.214Z,16.97
2018-11-29T21:43:27.078Z,17.00
2018-11-29T21:45:56.672Z,16.97
2018-11-29T21:48:25.525Z,17.97
2018-11-29T21:50:54.363Z,18.37
2018-11-29T21:53:23.946Z,17.47
2018-11-29T21:55:53.724Z,17.50
2018-11-29T21:58:22.806Z,18.37
2018-11-29T22:00:51.819Z,17.43
2018-11-29T22:03:20.889Z,17.60
2018-11-29T22:05:50.534Z,17.30
2018-11-29T22:08:19.618Z,17.47
2018-11-29T22:10:48.701Z,18.23
2018-11-29T22:13:17.807Z,16.43
2018-11-29T22:15:46.909Z,16.90
2018-11-29T22:18:15.970Z,17.37
2018-11-29T22:20:45.064Z,17.13
2018-11-29T22:23:14.063Z,18.23
2018-11-29T22:25:43.151Z,17.27
2018-11-29T22:28:12.236Z,16.97
2018-11-29T22:30:41.437Z,17.27
2018-11-29T22:33:10.335Z,17.23
2018-11-29T22:35:39.434Z,17.50
2018-11-29T22:38:08.441Z,17.10
2018-11-29T22:40:37.294Z,17.53
2018-11-29T22:43:06.138Z,17.53
2018-11-29T22:45:34.991Z,18.10
2018-11-29T22:48:03.842Z,17.87
2018-11-29T22:50:32.740Z,17.07
2018-11-29T22:53:02.284Z,18.92
2018-11-29T22:55:31.128Z,17.47
2018-11-29T22:58:00.709Z,17.87
2018-11-29T23:00:29.555Z,15.83
2018-11-29T23:02:58.390Z,16.80
2018-11-29T23:05:27.235Z,17.17
2018-11-29T23:07:56.084Z,17.97
2018-11-29T23:10:24.938Z,17.10
2018-11-29T23:12:53.851Z,17.00
2018-11-29T23:15:22.666Z,17.93
2018-11-29T23:17:51.526Z,17.97
2018-11-29T23:20:20.373Z,18.50
2018-11-29T23:22:49.228Z,17.93
2018-11-29T23:25:18.064Z,17.30
2018-11-29T23:27:46.909Z,16.60
2018-11-29T23:30:16.503Z,17.17
2018-11-29T23:32:46.085Z,16.90
2018-11-29T23:35:14.945Z,19.00
2018-11-29T23:37:43.827Z,16.83
2018-11-29T23:40:13.421Z,17.70
2018-11-29T23:42:42.259Z,17.37
2018-11-29T23:45:11.121Z,17.47
2018-11-29T23:47:39.947Z,18.98
2018-11-29T23:50:08.792Z,17.10
2018-11-29T23:52:37.629Z,17.83
2018-11-29T23:55:06.454Z,18.57
2018-11-29T23:57:36.045Z,17.10
